createdAt,value
2022-10-17T00:02:10.331Z,10.60
2022-10-17T00:04:37.076Z,10.50
2022-10-17T00:07:03.727Z,10.50
2022-10-17T00:09:30.375Z,10.50
2022-10-17T00:11:57.012Z,10.50
2022-10-17T00:14:23.652Z,10.50
2022-10-17T00:16:50.253Z,10.40
2022-10-17T00:19:16.901Z,10.40
2022-10-17T00:21:43.542Z,10.40
2022-10-17T00:24:10.190Z,10.40
2022-10-17T00:26:36.847Z,10.30
2022-10-17T00:29:03.589Z,10.30
2022-10-17T00:31:30.296Z,10.30
2022-10-17T00:33:56.933Z,10.30
2022-10-17T00:36:24.963Z,10.30
2022-10-17T00:38:53.452Z,10.30
2022-10-17T00:41:21.380Z,10.30
2022-10-17T00:43:49.192Z,10.20
2022-10-17T00:46:15.879Z,10.20
2022-10-17T00:48:43.260Z,10.20
2022-10-17T00:51:09.882Z,10.20
2022-10-17T00:53:37.224Z,10.10
2022-10-17T00:56:03.955Z,10.10
2022-10-17T00:58:30.640Z,10.10
2022-10-17T01:00:57.262Z,10.10
2022-10-17T01:03:24.040Z,10.10
2022-10-17T01:05:50.703Z,10.10
2022-10-17T01:08:17.319Z,10.00
2022-10-17T01:11:16.508Z,10.00
2022-10-17T01:13:46.826Z,10.00
2022-10-17T01:16:13.445Z,10.00
2022-10-17T01:18:44.550Z,10.00
2022-10-17T01:21:23.465Z,10.00
2022-10-17T01:24:05.391Z,9.90
2022-10-17T01:26:38.109Z,9.90
2022-10-17T01:29:07.715Z,9.90
2022-10-17T01:31:39.675Z,9.90
2022-10-17T01:34:12.814Z,9.90
2022-10-17T01:36:46.125Z,9.90
2022-10-17T01:39:34.438Z,9.80
2022-10-17T01:42:17.103Z,9.80
2022-10-17T01:44:54.076Z,9.80
2022-10-17T01:47:22.023Z,9.70
2022-10-17T01:49:50.409Z,9.70
2022-10-17T01:52:49.508Z,9.70
2022-10-17T01:55:21.368Z,9.70
2022-10-17T01:57:53.129Z,9.70
2022-10-17T02:00:22.244Z,9.60
2022-10-17T02:02:51.943Z,9.70
2022-10-17T02:05:20.328Z,9.60
2022-10-17T02:07:46.998Z,9.60
2022-10-17T02:10:19.225Z,9.50
2022-10-17T02:12:51.018Z,9.50
2022-10-17T02:15:26.847Z,9.50
2022-10-17T02:18:15.895Z,9.50
2022-10-17T02:20:53.932Z,9.50
2022-10-17T02:23:25.533Z,9.40
2022-10-17T02:25:57.611Z,9.40
2022-10-17T02:28:33.518Z,9.40
2022-10-17T02:31:17.730Z,9.40
2022-10-17T02:33:50.131Z,9.30
2022-10-17T02:36:22.031Z,9.30
2022-10-17T02:38:49.629Z,9.30
2022-10-17T02:41:17.698Z,9.30
2022-10-17T02:43:46.722Z,9.30
2022-10-17T02:46:20.836Z,9.30
2022-10-17T02:48:50.148Z,9.30
2022-10-17T02:51:29.143Z,9.20
2022-10-17T02:54:02.037Z,9.20
2022-10-17T02:56:31.086Z,9.20
2022-10-17T02:58:58.976Z,9.20
2022-10-17T03:01:26.201Z,9.20
2022-10-17T03:04:04.069Z,9.10
2022-10-17T03:06:30.767Z,9.20
2022-10-17T03:08:57.442Z,9.20
2022-10-17T03:11:24.048Z,9.20
2022-10-17T03:13:50.682Z,9.20
2022-10-17T03:16:17.286Z,9.20
2022-10-17T03:18:46.603Z,9.20
2022-10-17T03:21:16.064Z,9.20
2022-10-17T03:23:42.724Z,9.10
2022-10-17T03:26:09.352Z,9.10
2022-10-17T03:28:36.081Z,9.10
2022-10-17T03:31:10.083Z,9.10
2022-10-17T03:33:37.667Z,9.10
2022-10-17T03:36:11.533Z,9.10
2022-10-17T03:38:38.420Z,9.20
2022-10-17T03:41:06.015Z,9.10
2022-10-17T03:43:32.646Z,9.10
2022-10-17T03:45:59.729Z,9.10
2022-10-17T03:48:26.626Z,9.10
2022-10-17T03:50:58.077Z,9.00
2022-10-17T03:53:24.730Z,9.00
2022-10-17T03:55:51.361Z,9.00
2022-10-17T03:58:18.025Z,9.00
2022-10-17T04:00:44.741Z,8.90
2022-10-17T04:03:16.350Z,8.90
2022-10-17T04:05:43.969Z,8.90
2022-10-17T04:08:10.625Z,8.80
2022-10-17T04:10:37.366Z,8.80
2022-10-17T04:13:04.611Z,8.70
2022-10-17T04:15:31.200Z,8.70
2022-10-17T04:17:57.891Z,8.70
2022-10-17T04:20:24.531Z,8.70
2022-10-17T04:22:51.283Z,8.70
2022-10-17T04:25:17.976Z,8.70
2022-10-17T04:27:44.620Z,8.60
2022-10-17T04:30:11.323Z,8.60
2022-10-17T04:32:39.115Z,8.60
2022-10-17T04:35:05.905Z,8.60
2022-10-17T04:37:32.573Z,8.60
2022-10-17T04:39:59.206Z,8.60
2022-10-17T04:42:26.112Z,8.50
2022-10-17T04:44:52.816Z,8.50
2022-10-17T04:47:19.466Z,8.50
2022-10-17T04:49:46.440Z,8.50
2022-10-17T04:52:13.080Z,8.50
2022-10-17T04:54:39.688Z,8.50
2022-10-17T04:57:06.338Z,8.50
2022-10-17T04:59:32.964Z,8.40
2022-10-17T05:01:59.573Z,8.40
2022-10-17T05:04:27.028Z,8.40
2022-10-17T05:06:53.664Z,8.40
2022-10-17T05:09:20.268Z,8.40
2022-10-17T05:11:46.964Z,8.40
2022-10-17T05:14:13.590Z,8.40
2022-10-17T05:16:40.289Z,8.40
2022-10-17T05:19:07.034Z,8.40
2022-10-17T05:24:00.394Z,8.30
2022-10-17T05:26:27.035Z,8.30
2022-10-17T05:28:54.848Z,8.30
2022-10-17T05:31:21.644Z,8.30
2022-10-17T05:33:48.342Z,8.30
2022-10-17T05:36:15.196Z,8.30
2022-10-17T05:38:41.867Z,8.20
2022-10-17T05:41:09.540Z,8.20
2022-10-17T05:43:36.191Z,8.20
2022-10-17T05:46:03.968Z,8.20
2022-10-17T05:48:30.616Z,8.20
2022-10-17T05:50:58.320Z,8.30
2022-10-17T05:53:24.948Z,8.20
2022-10-17T05:55:58.663Z,8.30
2022-10-17T05:58:45.601Z,8.30
2022-10-17T06:01:12.944Z,8.30
2022-10-17T06:03:39.818Z,8.40
2022-10-17T06:06:08.187Z,8.40
2022-10-17T06:08:34.923Z,8.40
2022-10-17T06:11:04.907Z,8.50
2022-10-17T06:13:34.491Z,8.50
2022-10-17T06:16:01.199Z,8.50
2022-10-17T06:18:27.837Z,8.60
2022-10-17T06:20:54.561Z,8.60
2022-10-17T06:23:21.277Z,8.60
2022-10-17T06:25:48.030Z,8.60
2022-10-17T06:28:14.702Z,8.70
2022-10-17T06:30:41.603Z,8.70
2022-10-17T06:33:08.263Z,8.80
2022-10-17T06:35:34.959Z,8.80
2022-10-17T06:38:01.666Z,8.80
2022-10-17T06:40:28.424Z,8.90
2022-10-17T06:42:55.123Z,8.90
2022-10-17T06:45:21.775Z,9.00
2022-10-17T06:47:49.269Z,9.00
2022-10-17T06:50:16.014Z,9.10
2022-10-17T06:52:42.701Z,9.20
2022-10-17T06:55:09.485Z,9.30
2022-10-17T06:57:36.156Z,9.40
2022-10-17T07:00:04.232Z,9.50
2022-10-17T07:02:31.387Z,9.50
2022-10-17T07:04:58.409Z,9.60
2022-10-17T07:07:25.089Z,9.70
2022-10-17T07:09:51.778Z,9.80
2022-10-17T07:12:18.482Z,9.80
2022-10-17T07:14:47.225Z,9.90
2022-10-17T07:17:13.864Z,10.00
2022-10-17T07:19:40.515Z,10.10
2022-10-17T07:22:07.167Z,10.20
2022-10-17T07:24:33.817Z,10.30
2022-10-17T07:27:00.568Z,10.40
2022-10-17T07:29:27.337Z,10.40
2022-10-17T07:31:54.188Z,10.60
2022-10-17T07:34:20.936Z,10.70
2022-10-17T07:36:47.658Z,10.80
2022-10-17T07:39:14.329Z,10.90
2022-10-17T07:41:41.021Z,11.00
2022-10-17T07:44:07.690Z,11.10
2022-10-17T07:46:34.540Z,11.20
2022-10-17T07:49:01.436Z,11.40
2022-10-17T07:51:28.170Z,11.60
2022-10-17T07:53:54.838Z,11.90
2022-10-17T07:56:24.753Z,12.30
2022-10-17T07:58:52.228Z,12.60
2022-10-17T08:01:19.165Z,12.80
2022-10-17T08:03:46.316Z,12.90
2022-10-17T08:06:13.145Z,12.90
2022-10-17T08:08:40.176Z,13.00
2022-10-17T08:11:08.555Z,13.00
2022-10-17T08:13:35.635Z,13.10
2022-10-17T08:16:02.912Z,13.40
2022-10-17T08:18:29.631Z,13.50
2022-10-17T08:21:00.212Z,13.60
2022-10-17T08:23:27.559Z,13.70
2022-10-17T08:25:54.196Z,13.90
2022-10-17T08:28:20.869Z,14.10
2022-10-17T08:30:47.540Z,14.20
2022-10-17T08:33:15.147Z,14.50
2022-10-17T08:35:41.816Z,15.00
2022-10-17T08:38:11.039Z,16.20
2022-10-17T08:40:42.774Z,17.90
2022-10-17T08:43:15.664Z,19.50
2022-10-17T08:45:51.957Z,21.30
2022-10-17T08:48:19.806Z,23.30
2022-10-17T08:50:52.507Z,25.20
2022-10-17T08:53:22.398Z,26.80
2022-10-17T08:55:50.040Z,28.40
2022-10-17T08:58:24.437Z,29.80
2022-10-17T09:01:13.262Z,31.10
2022-10-17T09:03:52.362Z,32.30
2022-10-17T09:06:30.057Z,33.30
2022-10-17T09:09:15.063Z,34.10
2022-10-17T09:12:05.188Z,34.80
2022-10-17T09:14:50.626Z,35.30
2022-10-17T09:17:23.398Z,35.70
2022-10-17T09:19:57.378Z,35.60
2022-10-17T09:22:25.269Z,34.60
2022-10-17T09:24:59.919Z,32.60
2022-10-17T09:27:26.695Z,30.60
2022-10-17T09:29:59.720Z,28.70
2022-10-17T09:32:26.373Z,27.30
2022-10-17T09:34:53.440Z,26.20
2022-10-17T09:37:22.426Z,25.20
2022-10-17T09:39:49.136Z,24.40
2022-10-17T09:42:19.364Z,23.70
2022-10-17T09:44:47.492Z,23.00
2022-10-17T09:47:32.607Z,22.60
2022-10-17T09:49:59.230Z,22.10
2022-10-17T09:52:25.845Z,21.70
2022-10-17T09:55:11.154Z,21.50
2022-10-17T09:57:54.677Z,21.20
2022-10-17T10:00:23.296Z,21.10
2022-10-17T10:02:50.243Z,20.90
2022-10-17T10:05:21.007Z,20.80
2022-10-17T10:08:04.418Z,20.70
2022-10-17T10:10:32.023Z,20.60
2022-10-17T10:13:06.848Z,20.50
2022-10-17T10:15:35.178Z,20.40
2022-10-17T10:18:01.854Z,20.40
2022-10-17T10:20:35.778Z,20.30
2022-10-17T10:23:06.434Z,20.20
2022-10-17T10:25:33.538Z,20.20
2022-10-17T10:28:01.473Z,20.10
2022-10-17T10:30:30.156Z,20.10
2022-10-17T10:32:58.144Z,20.20
2022-10-17T10:35:35.634Z,20.10
2022-10-17T10:38:03.886Z,20.10
2022-10-17T10:40:37.282Z,20.10
2022-10-17T10:43:05.703Z,20.10
2022-10-17T10:45:47.338Z,20.10
2022-10-17T10:48:21.523Z,20.10
2022-10-17T10:51:05.346Z,20.10
2022-10-17T10:53:53.218Z,20.20
2022-10-17T10:56:19.865Z,20.30
2022-10-17T10:58:50.776Z,20.40
2022-10-17T11:01:21.067Z,20.50
2022-10-17T11:03:56.092Z,20.60
2022-10-17T11:06:24.642Z,20.80
2022-10-17T11:09:00.256Z,21.10
2022-10-17T11:11:34.463Z,21.30
2022-10-17T11:14:13.080Z,21.40
2022-10-17T11:16:44.857Z,21.50
2022-10-17T11:19:16.644Z,21.60
2022-10-17T11:21:59.126Z,21.60
2022-10-17T11:24:29.868Z,21.60
2022-10-17T11:27:04.045Z,21.60
2022-10-17T11:29:32.178Z,21.60
2022-10-17T11:32:02.165Z,21.60
2022-10-17T11:34:31.648Z,21.60
2022-10-17T11:37:08.004Z,21.60
2022-10-17T11:39:40.847Z,21.60
2022-10-17T11:42:12.016Z,21.60
2022-10-17T11:44:42.418Z,21.60
2022-10-17T11:47:14.894Z,21.60
2022-10-17T11:49:46.955Z,21.60
2022-10-17T11:55:21.913Z,21.60
2022-10-17T11:57:48.484Z,21.60
2022-10-17T12:00:24.363Z,21.60
2022-10-17T12:03:03.287Z,21.60
2022-10-17T12:05:48.628Z,21.60
2022-10-17T12:08:18.207Z,21.60
2022-10-17T12:10:47.400Z,21.70
2022-10-17T12:13:29.790Z,21.70
2022-10-17T12:15:57.126Z,21.70
2022-10-17T12:18:25.387Z,21.70
2022-10-17T12:20:56.603Z,21.80
2022-10-17T12:23:32.535Z,21.80
2022-10-17T12:26:04.713Z,21.80
2022-10-17T12:28:33.697Z,21.80
2022-10-17T12:31:03.386Z,21.80
2022-10-17T12:33:29.979Z,21.80
2022-10-17T12:36:15.454Z,21.80
2022-10-17T12:38:42.053Z,21.80
2022-10-17T12:41:08.709Z,21.80
2022-10-17T12:43:45.930Z,21.80
2022-10-17T12:46:12.879Z,21.90
2022-10-17T12:48:39.531Z,21.90
2022-10-17T12:54:01.800Z,22.00
2022-10-17T12:56:36.520Z,22.00
2022-10-17T12:59:07.768Z,22.00
2022-10-17T13:01:36.627Z,22.00
2022-10-17T13:04:05.849Z,22.00
2022-10-17T13:06:39.942Z,22.10
2022-10-17T13:09:18.650Z,22.10
2022-10-17T13:11:45.406Z,22.10
2022-10-17T13:14:13.652Z,22.10
2022-10-17T13:16:41.840Z,22.10
2022-10-17T13:19:15.759Z,22.10
2022-10-17T13:21:55.959Z,22.20
2022-10-17T13:24:30.327Z,22.20
2022-10-17T13:26:57.049Z,22.30
2022-10-17T13:29:25.742Z,22.30
2022-10-17T13:31:54.127Z,22.30
2022-10-17T13:34:22.011Z,22.40
2022-10-17T13:36:50.587Z,22.40
2022-10-17T13:39:23.057Z,22.40
2022-10-17T13:41:55.907Z,22.40
2022-10-17T13:44:26.806Z,22.40
2022-10-17T13:46:53.484Z,22.40
2022-10-17T13:49:21.414Z,22.40
2022-10-17T13:51:51.821Z,22.40
2022-10-17T13:54:35.793Z,22.40
2022-10-17T13:57:03.629Z,22.40
2022-10-17T13:59:34.169Z,22.30
2022-10-17T14:02:01.984Z,22.30
2022-10-17T14:04:36.110Z,22.30
2022-10-17T14:07:24.441Z,22.30
2022-10-17T14:09:51.244Z,22.30
2022-10-17T14:12:19.126Z,22.30
2022-10-17T14:17:38.505Z,22.20
2022-10-17T14:20:26.616Z,22.20
2022-10-17T14:23:20.922Z,22.20
2022-10-17T14:25:40.223Z,22.20
2022-10-17T14:28:15.559Z,22.20
2022-10-17T14:31:01.424Z,22.20
2022-10-17T14:33:31.855Z,22.20
2022-10-17T14:35:59.470Z,22.20
2022-10-17T14:38:26.408Z,22.10
2022-10-17T14:41:22.060Z,22.10
2022-10-17T14:43:52.377Z,22.10
2022-10-17T14:46:19.027Z,22.10
2022-10-17T14:48:47.669Z,22.00
2022-10-17T14:51:18.506Z,22.00
2022-10-17T14:54:02.939Z,22.00
2022-10-17T14:56:36.718Z,22.00
2022-10-17T14:59:07.558Z,22.00
2022-10-17T15:01:37.767Z,21.90
2022-10-17T15:04:04.471Z,21.90
2022-10-17T15:06:33.259Z,21.80
2022-10-17T15:08:59.872Z,21.80
2022-10-17T15:11:26.500Z,21.80
2022-10-17T15:13:53.120Z,21.70
2022-10-17T15:16:27.083Z,21.60
2022-10-17T15:18:53.940Z,21.60
2022-10-17T15:21:26.683Z,21.50
2022-10-17T15:24:04.786Z,21.50
2022-10-17T15:26:32.496Z,21.40
2022-10-17T15:31:33.864Z,21.30
2022-10-17T15:34:00.481Z,21.20
2022-10-17T15:36:28.731Z,21.10
2022-10-17T15:38:57.827Z,21.10
2022-10-17T15:41:25.571Z,20.90
2022-10-17T15:43:52.293Z,20.80
2022-10-17T15:46:21.198Z,20.70
2022-10-17T15:48:48.017Z,20.50
2022-10-17T15:51:14.652Z,20.30
2022-10-17T15:53:41.384Z,20.20
2022-10-17T15:56:08.770Z,20.00
2022-10-17T15:58:37.994Z,19.90
2022-10-17T16:01:05.334Z,19.70
2022-10-17T16:03:33.940Z,19.60
2022-10-17T16:06:00.594Z,19.40
2022-10-17T16:08:28.231Z,19.20
2022-10-17T16:10:54.899Z,19.00
2022-10-17T16:13:22.952Z,18.90
2022-10-17T16:15:49.588Z,18.70
2022-10-17T16:18:16.161Z,18.60
2022-10-17T16:20:42.863Z,18.40
2022-10-17T16:23:10.615Z,18.30
2022-10-17T16:25:37.324Z,18.10
2022-10-17T16:28:04.399Z,18.00
2022-10-17T16:30:31.641Z,17.80
2022-10-17T16:32:58.296Z,17.70
2022-10-17T16:35:26.962Z,17.50
2022-10-17T16:37:53.650Z,17.40
2022-10-17T16:40:20.351Z,17.30
2022-10-17T16:42:47.018Z,17.20
2022-10-17T16:45:20.699Z,17.10
2022-10-17T16:47:47.788Z,16.90
2022-10-17T16:50:14.734Z,16.80
2022-10-17T16:52:41.763Z,16.70
2022-10-17T16:55:08.650Z,16.60
2022-10-17T16:57:35.363Z,16.50
2022-10-17T17:00:02.127Z,16.40
2022-10-17T17:02:28.928Z,16.30
2022-10-17T17:04:55.649Z,16.10
2022-10-17T17:07:24.104Z,16.00
2022-10-17T17:09:50.817Z,15.90
2022-10-17T17:12:17.442Z,15.80
2022-10-17T17:14:44.219Z,15.70
2022-10-17T17:17:19.434Z,15.60
2022-10-17T17:19:57.088Z,15.50
2022-10-17T17:22:23.759Z,15.40
2022-10-17T17:24:50.486Z,15.30
2022-10-17T17:27:17.249Z,15.20
2022-10-17T17:29:43.972Z,15.10
2022-10-17T17:32:10.983Z,15.00
2022-10-17T17:34:37.629Z,15.00
2022-10-17T17:37:04.335Z,14.90
2022-10-17T17:39:30.960Z,14.80
2022-10-17T17:41:57.624Z,14.70
2022-10-17T17:44:24.293Z,14.60
2022-10-17T17:46:50.956Z,14.60
2022-10-17T17:49:17.547Z,14.50
2022-10-17T17:51:46.502Z,14.40
2022-10-17T17:54:13.392Z,14.30
2022-10-17T17:56:40.230Z,14.20
2022-10-17T17:59:06.885Z,14.10
2022-10-17T18:01:38.579Z,14.10
2022-10-17T18:04:06.858Z,14.00
2022-10-17T18:06:33.558Z,14.00
2022-10-17T18:09:01.274Z,13.90
2022-10-17T18:11:28.428Z,13.90
2022-10-17T18:13:56.393Z,13.80
2022-10-17T18:16:23.129Z,13.80
2022-10-17T18:18:49.747Z,13.70
2022-10-17T18:21:16.391Z,13.70
2022-10-17T18:23:45.010Z,13.60
2022-10-17T18:26:12.003Z,13.50
2022-10-17T18:28:39.501Z,13.50
2022-10-17T18:31:06.543Z,13.50
2022-10-17T18:33:33.285Z,13.40
2022-10-17T18:36:07.316Z,13.40
2022-10-17T18:38:34.057Z,13.30
2022-10-17T18:41:27.230Z,13.30
2022-10-17T18:43:54.666Z,13.20
2022-10-17T18:46:22.468Z,13.20
2022-10-17T18:48:49.647Z,13.10
2022-10-17T18:51:17.532Z,13.10
2022-10-17T18:53:45.026Z,13.10
2022-10-17T18:56:12.059Z,13.00
2022-10-17T18:58:39.159Z,13.00
2022-10-17T19:01:07.805Z,12.90
2022-10-17T19:03:34.441Z,12.90
2022-10-17T19:06:08.005Z,12.80
2022-10-17T19:08:35.065Z,12.80
2022-10-17T19:11:08.788Z,12.80
2022-10-17T19:13:35.807Z,12.70
2022-10-17T19:16:06.833Z,12.70
2022-10-17T19:18:33.989Z,12.60
2022-10-17T19:21:04.385Z,12.60
2022-10-17T19:23:31.067Z,12.60
2022-10-17T19:26:05.516Z,12.60
2022-10-17T19:28:32.585Z,12.50
2022-10-17T19:30:59.304Z,12.50
2022-10-17T19:33:26.202Z,12.50
2022-10-17T19:35:56.932Z,12.40
2022-10-17T19:38:23.671Z,12.40
2022-10-17T19:40:50.497Z,12.30
2022-10-17T19:43:17.646Z,12.30
2022-10-17T19:45:44.296Z,12.30
2022-10-17T19:48:10.872Z,12.20
2022-10-17T19:50:39.186Z,12.20
2022-10-17T19:53:08.063Z,12.20
2022-10-17T19:55:34.680Z,12.20
2022-10-17T19:58:02.651Z,12.10
2022-10-17T20:00:29.330Z,12.10
2022-10-17T20:02:55.894Z,12.10
2022-10-17T20:05:25.917Z,12.00
2022-10-17T20:07:54.242Z,12.00
2022-10-17T20:10:21.217Z,12.00
2022-10-17T20:12:48.154Z,12.00
2022-10-17T20:15:14.799Z,11.90
2022-10-17T20:17:41.385Z,11.90
2022-10-17T20:20:08.883Z,11.90
2022-10-17T20:22:35.688Z,11.80
2022-10-17T20:25:02.258Z,11.80
2022-10-17T20:27:28.991Z,11.80
2022-10-17T20:29:55.600Z,11.80
2022-10-17T20:32:22.201Z,11.70
2022-10-17T20:34:48.815Z,11.70
2022-10-17T20:37:15.412Z,11.70
2022-10-17T20:39:42.614Z,11.70
2022-10-17T20:42:09.231Z,11.60
2022-10-17T20:44:35.873Z,11.60
2022-10-17T20:47:02.935Z,11.60
2022-10-17T20:49:30.487Z,11.60
2022-10-17T20:51:57.431Z,11.60
2022-10-17T20:54:24.358Z,11.50
2022-10-17T20:56:51.148Z,11.50
2022-10-17T20:59:17.970Z,11.50
2022-10-17T21:01:45.313Z,11.50
2022-10-17T21:06:59.005Z,11.40
2022-10-17T21:09:25.589Z,11.40
2022-10-17T21:11:55.083Z,11.40
2022-10-17T21:14:22.424Z,11.40
2022-10-17T21:16:49.035Z,11.40
2022-10-17T21:19:15.995Z,11.30
2022-10-17T21:21:44.206Z,11.30
2022-10-17T21:24:14.715Z,11.30
2022-10-17T21:26:42.124Z,11.20
2022-10-17T21:31:37.327Z,11.20
2022-10-17T21:34:07.908Z,11.20
2022-10-17T21:36:34.554Z,11.20
2022-10-17T21:39:01.276Z,11.10
2022-10-17T21:41:29.142Z,11.10
2022-10-17T21:43:57.768Z,11.10
2022-10-17T21:46:24.387Z,11.10
2022-10-17T21:48:51.860Z,11.10
2022-10-17T21:51:19.937Z,11.10
2022-10-17T21:53:46.851Z,11.00
2022-10-17T21:56:14.768Z,11.00
2022-10-17T21:58:41.847Z,11.00
2022-10-17T22:01:10.706Z,11.00
2022-10-17T22:03:41.403Z,11.00
2022-10-17T22:06:38.620Z,11.00
2022-10-17T22:08:58.582Z,11.00
2022-10-17T22:11:26.668Z,10.90
2022-10-17T22:13:57.687Z,10.90
2022-10-17T22:16:24.322Z,10.90
2022-10-17T22:18:51.235Z,10.90
2022-10-17T22:21:19.577Z,10.90
2022-10-17T22:23:47.422Z,10.90
2022-10-17T22:26:14.326Z,10.90
2022-10-17T22:28:41.460Z,10.90
2022-10-17T22:31:08.451Z,10.90
2022-10-17T22:33:35.777Z,10.90
2022-10-17T22:36:02.688Z,10.90
2022-10-17T22:38:29.520Z,10.90
2022-10-17T22:40:56.206Z,10.90
2022-10-17T22:43:22.879Z,10.90
2022-10-17T22:45:53.469Z,10.80
2022-10-17T22:48:20.527Z,10.80
2022-10-17T22:50:50.607Z,10.80
2022-10-17T22:53:25.846Z,10.80
2022-10-17T22:55:53.401Z,10.80
2022-10-17T22:58:20.650Z,10.80
2022-10-17T23:00:48.055Z,10.80
2022-10-17T23:03:14.834Z,10.80
2022-10-17T23:05:41.428Z,10.80
2022-10-17T23:08:08.096Z,10.80
2022-10-17T23:10:34.891Z,10.70
2022-10-17T23:13:01.569Z,10.70
2022-10-17T23:15:28.170Z,10.70
2022-10-17T23:17:54.762Z,10.60
2022-10-17T23:20:21.467Z,10.60
2022-10-17T23:22:48.081Z,10.60
2022-10-17T23:25:14.739Z,10.60
2022-10-17T23:27:41.370Z,10.60
2022-10-17T23:30:08.198Z,10.60
2022-10-17T23:32:34.828Z,10.60
2022-10-17T23:35:01.466Z,10.60
2022-10-17T23:37:28.415Z,10.60
2022-10-17T23:39:55.295Z,10.60
2022-10-17T23:42:21.892Z,10.50
2022-10-17T23:44:48.499Z,10.50
2022-10-17T23:47:15.091Z,10.50
2022-10-17T23:49:41.729Z,10.40
2022-10-17T23:52:08.356Z,10.40
2022-10-17T23:54:35.021Z,10.40
2022-10-17T23:57:01.687Z,10.40
2022-10-17T23:59:28.292Z,10.30
